Terminal Aerodrome Forecast
Issued by NWS

Home | Current Version | Previous Version | Text Only | Print | Product List | Glossary On
Versions: 1 2 3 4 5 6 7 8 9 10 11 12 13 14 15
000
FTUS44 KBMX 231100
TAFANB
TAF
KANB 231131Z 2312/2412 08008G18KT P6SM VCSH OVC008
     FM231500 10012G18KT P6SM VCSH OVC008
      TEMPO 2315/2318 2SM SHRA
     FM231800 12010G18KT 5SM SHRA OVC012
     FM232000 15010G18KT 4SM SHRA VCTS OVC015CB
      TEMPO 2320/2323 2SM TSRA
     FM240100 19010KT P6SM VCSH BKN025=

USA.gov is the U.S. government's official web portal to all federal, state and local government web resources and services.